sensor_id;sensor_type;location;lat;lon;timestamp;P1;durP1;ratioP1;P2;durP2;ratioP2
44358;SDS011;30077;52.474;13.326;2022-09-20T00:04:58;4.43;;;1.70;;
44358;SDS011;30077;52.474;13.326;2022-09-20T00:09:59;3.90;;;2.03;;
44358;SDS011;30077;52.474;13.326;2022-09-20T00:14:59;2.95;;;2.05;;
44358;SDS011;30077;52.474;13.326;2022-09-20T00:19:59;3.75;;;2.10;;
44358;SDS011;30077;52.474;13.326;2022-09-20T00:24:59;3.65;;;1.70;;
44358;SDS011;30077;52.474;13.326;2022-09-20T00:30:00;3.85;;;1.88;;
44358;SDS011;30077;52.474;13.326;2022-09-20T00:35:00;5.03;;;2.25;;
44358;SDS011;30077;52.474;13.326;2022-09-20T00:40:08;6.10;;;2.05;;
44358;SDS011;30077;52.474;13.326;2022-09-20T00:45:21;4.03;;;2.10;;
44358;SDS011;30077;52.474;13.326;2022-09-20T00:55:34;4.78;;;2.10;;
44358;SDS011;30077;52.474;13.326;2022-09-20T01:00:39;4.60;;;2.00;;
44358;SDS011;30077;52.474;13.326;2022-09-20T01:05:42;4.70;;;2.00;;
44358;SDS011;30077;52.474;13.326;2022-09-20T01:10:43;4.72;;;2.15;;
44358;SDS011;30077;52.474;13.326;2022-09-20T01:15:44;4.82;;;2.13;;
44358;SDS011;30077;52.474;13.326;2022-09-20T01:20:48;4.00;;;2.00;;
44358;SDS011;30077;52.474;13.326;2022-09-20T01:31:26;5.72;;;2.10;;
44358;SDS011;30077;52.474;13.326;2022-09-20T01:36:33;4.40;;;1.90;;
44358;SDS011;30077;52.474;13.326;2022-09-20T01:41:43;3.83;;;2.20;;
44358;SDS011;30077;52.474;13.326;2022-09-20T01:46:52;8.30;;;2.42;;
44358;SDS011;30077;52.474;13.326;2022-09-20T01:52:19;2.75;;;1.80;;
44358;SDS011;30077;52.474;13.326;2022-09-20T02:14:03;2.70;;;1.90;;
44358;SDS011;30077;52.474;13.326;2022-09-20T02:19:45;5.47;;;2.08;;
44358;SDS011;30077;52.474;13.326;2022-09-20T02:41:11;2.63;;;1.90;;
44358;SDS011;30077;52.474;13.326;2022-09-20T02:46:40;6.05;;;2.13;;
44358;SDS011;30077;52.474;13.326;2022-09-20T03:02:39;2.35;;;1.90;;
44358;SDS011;30077;52.474;13.326;2022-09-20T03:18:55;6.65;;;2.10;;
44358;SDS011;30077;52.474;13.326;2022-09-20T03:29:39;3.33;;;1.80;;
44358;SDS011;30077;52.474;13.326;2022-09-20T03:57:14;5.25;;;2.67;;
44358;SDS011;30077;52.474;13.326;2022-09-20T04:02:52;7.07;;;2.55;;
44358;SDS011;30077;52.474;13.326;2022-09-20T04:18:54;5.55;;;2.58;;
44358;SDS011;30077;52.474;13.326;2022-09-20T04:29:13;3.10;;;2.10;;
44358;SDS011;30077;52.474;13.326;2022-09-20T04:35:02;9.65;;;2.60;;
44358;SDS011;30077;52.474;13.326;2022-09-20T04:40:35;7.53;;;3.53;;
44358;SDS011;30077;52.474;13.326;2022-09-20T04:46:07;6.00;;;2.88;;
44358;SDS011;30077;52.474;13.326;2022-09-20T04:56:40;9.13;;;2.83;;
44358;SDS011;30077;52.474;13.326;2022-09-20T05:13:06;8.40;;;3.08;;
44358;SDS011;30077;52.474;13.326;2022-09-20T05:28:49;3.70;;;2.40;;
44358;SDS011;30077;52.474;13.326;2022-09-20T05:39:11;5.82;;;2.92;;
44358;SDS011;30077;52.474;13.326;2022-09-20T05:44:34;4.93;;;2.28;;
44358;SDS011;30077;52.474;13.326;2022-09-20T05:50:23;5.25;;;2.85;;
44358;SDS011;30077;52.474;13.326;2022-09-20T05:55:45;8.00;;;2.78;;
44358;SDS011;30077;52.474;13.326;2022-09-20T06:00:49;4.38;;;1.88;;
44358;SDS011;30077;52.474;13.326;2022-09-20T06:06:00;6.60;;;3.03;;
44358;SDS011;30077;52.474;13.326;2022-09-20T06:11:16;7.10;;;2.58;;
44358;SDS011;30077;52.474;13.326;2022-09-20T06:21:55;3.50;;;1.83;;
44358;SDS011;30077;52.474;13.326;2022-09-20T06:27:01;2.78;;;1.60;;
44358;SDS011;30077;52.474;13.326;2022-09-20T06:32:07;4.63;;;2.10;;
44358;SDS011;30077;52.474;13.326;2022-09-20T06:37:20;2.95;;;1.80;;
44358;SDS011;30077;52.474;13.326;2022-09-20T06:42:54;4.65;;;2.17;;
44358;SDS011;30077;52.474;13.326;2022-09-20T06:47:54;8.23;;;3.90;;
44358;SDS011;30077;52.474;13.326;2022-09-20T06:52:55;4.28;;;2.15;;
44358;SDS011;30077;52.474;13.326;2022-09-20T06:57:55;5.40;;;1.70;;
44358;SDS011;30077;52.474;13.326;2022-09-20T07:02:56;4.82;;;1.77;;
44358;SDS011;30077;52.474;13.326;2022-09-20T07:07:56;5.78;;;2.35;;
44358;SDS011;30077;52.474;13.326;2022-09-20T07:12:58;4.30;;;2.38;;
44358;SDS011;30077;52.474;13.326;2022-09-20T07:17:59;4.50;;;2.10;;
44358;SDS011;30077;52.474;13.326;2022-09-20T07:22:59;6.10;;;2.92;;
44358;SDS011;30077;52.474;13.326;2022-09-20T07:28:00;3.73;;;2.33;;
44358;SDS011;30077;52.474;13.326;2022-09-20T07:33:02;6.87;;;2.63;;
44358;SDS011;30077;52.474;13.326;2022-09-20T07:38:02;5.63;;;2.70;;
44358;SDS011;30077;52.474;13.326;2022-09-20T07:43:02;4.28;;;2.47;;
44358;SDS011;30077;52.474;13.326;2022-09-20T07:48:04;4.35;;;2.67;;
44358;SDS011;30077;52.474;13.326;2022-09-20T07:53:07;7.10;;;2.47;;
44358;SDS011;30077;52.474;13.326;2022-09-20T07:58:08;4.95;;;2.80;;
44358;SDS011;30077;52.474;13.326;2022-09-20T08:03:08;3.72;;;2.58;;
44358;SDS011;30077;52.474;13.326;2022-09-20T08:08:08;5.22;;;2.58;;
44358;SDS011;30077;52.474;13.326;2022-09-20T08:13:09;4.63;;;2.40;;
44358;SDS011;30077;52.474;13.326;2022-09-20T08:18:10;11.85;;;2.47;;
44358;SDS011;30077;52.474;13.326;2022-09-20T08:23:13;7.05;;;2.65;;
44358;SDS011;30077;52.474;13.326;2022-09-20T08:28:13;11.70;;;3.05;;
44358;SDS011;30077;52.474;13.326;2022-09-20T08:33:13;7.07;;;3.03;;
44358;SDS011;30077;52.474;13.326;2022-09-20T08:38:14;5.15;;;3.10;;
44358;SDS011;30077;52.474;13.326;2022-09-20T08:43:14;5.63;;;3.10;;
44358;SDS011;30077;52.474;13.326;2022-09-20T08:48:15;9.38;;;3.78;;
44358;SDS011;30077;52.474;13.326;2022-09-20T08:53:17;6.47;;;3.03;;
44358;SDS011;30077;52.474;13.326;2022-09-20T08:58:18;4.47;;;3.20;;
44358;SDS011;30077;52.474;13.326;2022-09-20T09:03:19;5.72;;;3.10;;
44358;SDS011;30077;52.474;13.326;2022-09-20T09:08:20;8.38;;;3.38;;
44358;SDS011;30077;52.474;13.326;2022-09-20T09:13:34;12.23;;;3.67;;
44358;SDS011;30077;52.474;13.326;2022-09-20T09:18:47;7.25;;;3.97;;
44358;SDS011;30077;52.474;13.326;2022-09-20T09:23:49;6.63;;;4.22;;
44358;SDS011;30077;52.474;13.326;2022-09-20T09:34:22;7.32;;;3.53;;
44358;SDS011;30077;52.474;13.326;2022-09-20T09:39:29;6.65;;;3.90;;
44358;SDS011;30077;52.474;13.326;2022-09-20T09:44:31;7.25;;;4.20;;
44358;SDS011;30077;52.474;13.326;2022-09-20T09:49:32;8.30;;;4.85;;
44358;SDS011;30077;52.474;13.326;2022-09-20T09:54:36;8.87;;;4.17;;
44358;SDS011;30077;52.474;13.326;2022-09-20T09:59:40;8.50;;;3.80;;
44358;SDS011;30077;52.474;13.326;2022-09-20T10:15:58;7.90;;;4.33;;
44358;SDS011;30077;52.474;13.326;2022-09-20T10:21:16;8.10;;;3.40;;
44358;SDS011;30077;52.474;13.326;2022-09-20T10:26:32;5.35;;;3.55;;
44358;SDS011;30077;52.474;13.326;2022-09-20T10:32:10;7.30;;;3.55;;
44358;SDS011;30077;52.474;13.326;2022-09-20T10:43:05;6.68;;;2.88;;
44358;SDS011;30077;52.474;13.326;2022-09-20T10:48:17;8.43;;;3.80;;
44358;SDS011;30077;52.474;13.326;2022-09-20T10:53:37;6.20;;;2.85;;
44358;SDS011;30077;52.474;13.326;2022-09-20T10:58:51;5.57;;;2.80;;
44358;SDS011;30077;52.474;13.326;2022-09-20T11:04:25;7.35;;;3.03;;
44358;SDS011;30077;52.474;13.326;2022-09-20T11:09:31;10.07;;;3.25;;
44358;SDS011;30077;52.474;13.326;2022-09-20T11:14:39;6.88;;;2.55;;
44358;SDS011;30077;52.474;13.326;2022-09-20T11:24:51;5.47;;;2.80;;
44358;SDS011;30077;52.474;13.326;2022-09-20T11:30:14;8.00;;;3.08;;
44358;SDS011;30077;52.474;13.326;2022-09-20T11:35:25;13.98;;;4.32;;
44358;SDS011;30077;52.474;13.326;2022-09-20T11:40:40;4.40;;;2.10;;
44358;SDS011;30077;52.474;13.326;2022-09-20T11:45:47;2.42;;;1.42;;
44358;SDS011;30077;52.474;13.326;2022-09-20T11:56:33;19.05;;;9.13;;
44358;SDS011;30077;52.474;13.326;2022-09-20T12:01:35;10.77;;;6.38;;
44358;SDS011;30077;52.474;13.326;2022-09-20T12:06:38;16.10;;;6.10;;
44358;SDS011;30077;52.474;13.326;2022-09-20T12:11:40;11.18;;;6.55;;
44358;SDS011;30077;52.474;13.326;2022-09-20T12:16:41;9.70;;;5.72;;
44358;SDS011;30077;52.474;13.326;2022-09-20T12:27:18;12.00;;;6.57;;
44358;SDS011;30077;52.474;13.326;2022-09-20T12:32:33;11.20;;;5.45;;
44358;SDS011;30077;52.474;13.326;2022-09-20T12:42:42;8.43;;;4.13;;
44358;SDS011;30077;52.474;13.326;2022-09-20T12:47:50;6.30;;;4.17;;
44358;SDS011;30077;52.474;13.326;2022-09-20T12:52:54;5.15;;;2.72;;
44358;SDS011;30077;52.474;13.326;2022-09-20T12:57:57;3.28;;;2.28;;
44358;SDS011;30077;52.474;13.326;2022-09-20T13:03:11;7.65;;;3.00;;
44358;SDS011;30077;52.474;13.326;2022-09-20T13:08:24;4.05;;;2.67;;
44358;SDS011;30077;52.474;13.326;2022-09-20T13:13:32;3.63;;;1.40;;
44358;SDS011;30077;52.474;13.326;2022-09-20T13:18:38;1.58;;;1.00;;
44358;SDS011;30077;52.474;13.326;2022-09-20T13:23:43;3.15;;;1.20;;
44358;SDS011;30077;52.474;13.326;2022-09-20T13:28:49;2.80;;;1.10;;
44358;SDS011;30077;52.474;13.326;2022-09-20T13:33:53;4.00;;;1.65;;
44358;SDS011;30077;52.474;13.326;2022-09-20T13:38:54;5.55;;;2.42;;
44358;SDS011;30077;52.474;13.326;2022-09-20T13:43:56;7.25;;;2.20;;
44358;SDS011;30077;52.474;13.326;2022-09-20T13:48:58;2.00;;;1.30;;
44358;SDS011;30077;52.474;13.326;2022-09-20T13:54:29;2.17;;;0.93;;
44358;SDS011;30077;52.474;13.326;2022-09-20T13:59:32;2.25;;;1.30;;
44358;SDS011;30077;52.474;13.326;2022-09-20T14:04:38;3.70;;;1.50;;
44358;SDS011;30077;52.474;13.326;2022-09-20T14:09:39;1.98;;;0.98;;
44358;SDS011;30077;52.474;13.326;2022-09-20T14:14:41;1.97;;;1.00;;
44358;SDS011;30077;52.474;13.326;2022-09-20T14:19:43;2.90;;;1.50;;
44358;SDS011;30077;52.474;13.326;2022-09-20T14:29:58;2.45;;;1.00;;
44358;SDS011;30077;52.474;13.326;2022-09-20T14:35:00;1.80;;;0.88;;
44358;SDS011;30077;52.474;13.326;2022-09-20T14:40:16;1.33;;;0.70;;
44358;SDS011;30077;52.474;13.326;2022-09-20T14:50:43;3.78;;;0.98;;
44358;SDS011;30077;52.474;13.326;2022-09-20T14:55:56;3.40;;;1.03;;
44358;SDS011;30077;52.474;13.326;2022-09-20T15:06:01;1.33;;;1.15;;
44358;SDS011;30077;52.474;13.326;2022-09-20T15:11:03;1.52;;;0.85;;
44358;SDS011;30077;52.474;13.326;2022-09-20T15:16:03;1.33;;;0.70;;
44358;SDS011;30077;52.474;13.326;2022-09-20T15:21:03;0.73;;;0.47;;
44358;SDS011;30077;52.474;13.326;2022-09-20T15:26:05;1.10;;;0.60;;
44358;SDS011;30077;52.474;13.326;2022-09-20T15:31:08;1.23;;;0.73;;
44358;SDS011;30077;52.474;13.326;2022-09-20T15:36:09;1.30;;;1.00;;
44358;SDS011;30077;52.474;13.326;2022-09-20T15:41:09;3.15;;;0.90;;
44358;SDS011;30077;52.474;13.326;2022-09-20T15:46:20;1.80;;;1.30;;
44358;SDS011;30077;52.474;13.326;2022-09-20T15:51:23;4.93;;;4.53;;
44358;SDS011;30077;52.474;13.326;2022-09-20T15:56:29;1.27;;;1.03;;
44358;SDS011;30077;52.474;13.326;2022-09-20T16:01:35;8.40;;;5.57;;
44358;SDS011;30077;52.474;13.326;2022-09-20T16:06:38;4.18;;;1.55;;
44358;SDS011;30077;52.474;13.326;2022-09-20T16:11:41;3.28;;;1.20;;
44358;SDS011;30077;52.474;13.326;2022-09-20T16:16:41;6.57;;;1.35;;
44358;SDS011;30077;52.474;13.326;2022-09-20T16:21:42;1.90;;;1.10;;
44358;SDS011;30077;52.474;13.326;2022-09-20T16:26:45;4.15;;;1.60;;
44358;SDS011;30077;52.474;13.326;2022-09-20T16:31:49;6.40;;;2.33;;
44358;SDS011;30077;52.474;13.326;2022-09-20T16:36:51;4.65;;;1.52;;
44358;SDS011;30077;52.474;13.326;2022-09-20T16:47:04;3.13;;;1.60;;
44358;SDS011;30077;52.474;13.326;2022-09-20T16:52:07;4.53;;;2.53;;
44358;SDS011;30077;52.474;13.326;2022-09-20T16:57:08;5.00;;;2.58;;
44358;SDS011;30077;52.474;13.326;2022-09-20T17:02:10;2.20;;;1.63;;
44358;SDS011;30077;52.474;13.326;2022-09-20T17:12:12;4.82;;;2.88;;
44358;SDS011;30077;52.474;13.326;2022-09-20T17:17:13;9.00;;;4.28;;
44358;SDS011;30077;52.474;13.326;2022-09-20T17:22:14;5.85;;;3.00;;
44358;SDS011;30077;52.474;13.326;2022-09-20T17:27:15;5.07;;;3.60;;
44358;SDS011;30077;52.474;13.326;2022-09-20T17:32:16;8.85;;;5.18;;
44358;SDS011;30077;52.474;13.326;2022-09-20T17:37:18;13.63;;;4.80;;
44358;SDS011;30077;52.474;13.326;2022-09-20T17:42:18;5.93;;;3.42;;
44358;SDS011;30077;52.474;13.326;2022-09-20T17:47:19;5.15;;;3.40;;
44358;SDS011;30077;52.474;13.326;2022-09-20T17:52:21;4.97;;;3.47;;
44358;SDS011;30077;52.474;13.326;2022-09-20T17:57:21;4.75;;;3.10;;
44358;SDS011;30077;52.474;13.326;2022-09-20T18:02:21;28.27;;;16.50;;
44358;SDS011;30077;52.474;13.326;2022-09-20T18:07:21;35.70;;;18.75;;
44358;SDS011;30077;52.474;13.326;2022-09-20T18:12:22;7.70;;;3.80;;
44358;SDS011;30077;52.474;13.326;2022-09-20T18:17:22;6.00;;;3.70;;
44358;SDS011;30077;52.474;13.326;2022-09-20T18:22:22;5.68;;;3.78;;
44358;SDS011;30077;52.474;13.326;2022-09-20T18:27:23;6.20;;;3.58;;
44358;SDS011;30077;52.474;13.326;2022-09-20T18:32:23;5.78;;;4.15;;
44358;SDS011;30077;52.474;13.326;2022-09-20T18:37:25;6.60;;;4.53;;
44358;SDS011;30077;52.474;13.326;2022-09-20T18:42:26;7.60;;;5.25;;
44358;SDS011;30077;52.474;13.326;2022-09-20T18:47:26;6.90;;;5.18;;
44358;SDS011;30077;52.474;13.326;2022-09-20T18:52:27;7.47;;;5.88;;
44358;SDS011;30077;52.474;13.326;2022-09-20T18:57:28;10.25;;;7.30;;
44358;SDS011;30077;52.474;13.326;2022-09-20T19:28:57;12.53;;;6.77;;
44358;SDS011;30077;52.474;13.326;2022-09-20T19:34:00;11.35;;;7.47;;
44358;SDS011;30077;52.474;13.326;2022-09-20T19:54:55;12.48;;;9.23;;
44358;SDS011;30077;52.474;13.326;2022-09-20T19:59:56;11.00;;;8.18;;
44358;SDS011;30077;52.474;13.326;2022-09-20T20:04:56;11.32;;;8.35;;
44358;SDS011;30077;52.474;13.326;2022-09-20T20:10:01;13.35;;;8.95;;
44358;SDS011;30077;52.474;13.326;2022-09-20T20:15:16;23.52;;;13.30;;
44358;SDS011;30077;52.474;13.326;2022-09-20T20:20:49;14.93;;;8.82;;
44358;SDS011;30077;52.474;13.326;2022-09-20T20:25:54;14.43;;;8.35;;
44358;SDS011;30077;52.474;13.326;2022-09-20T20:31:00;12.00;;;7.78;;
44358;SDS011;30077;52.474;13.326;2022-09-20T20:36:03;9.65;;;7.13;;
44358;SDS011;30077;52.474;13.326;2022-09-20T20:41:13;16.27;;;7.88;;
44358;SDS011;30077;52.474;13.326;2022-09-20T20:46:15;11.00;;;7.47;;
44358;SDS011;30077;52.474;13.326;2022-09-20T20:51:20;10.15;;;6.97;;
44358;SDS011;30077;52.474;13.326;2022-09-20T20:56:22;11.93;;;6.65;;
44358;SDS011;30077;52.474;13.326;2022-09-20T21:01:31;10.93;;;6.78;;
44358;SDS011;30077;52.474;13.326;2022-09-20T21:06:38;38.47;;;26.48;;
44358;SDS011;30077;52.474;13.326;2022-09-20T21:11:40;17.90;;;13.07;;
44358;SDS011;30077;52.474;13.326;2022-09-20T21:16:45;11.77;;;7.95;;
44358;SDS011;30077;52.474;13.326;2022-09-20T21:21:45;21.65;;;12.88;;
44358;SDS011;30077;52.474;13.326;2022-09-20T21:26:46;18.38;;;12.05;;
44358;SDS011;30077;52.474;13.326;2022-09-20T21:31:47;14.32;;;8.68;;
44358;SDS011;30077;52.474;13.326;2022-09-20T21:36:47;11.00;;;7.18;;
44358;SDS011;30077;52.474;13.326;2022-09-20T21:41:47;10.35;;;7.15;;
44358;SDS011;30077;52.474;13.326;2022-09-20T21:46:48;8.65;;;6.38;;
44358;SDS011;30077;52.474;13.326;2022-09-20T21:51:48;11.48;;;6.38;;
44358;SDS011;30077;52.474;13.326;2022-09-20T21:56:50;12.97;;;6.30;;
44358;SDS011;30077;52.474;13.326;2022-09-20T22:01:54;8.45;;;5.97;;
44358;SDS011;30077;52.474;13.326;2022-09-20T22:06:55;10.40;;;6.28;;
44358;SDS011;30077;52.474;13.326;2022-09-20T22:11:55;9.00;;;5.80;;
44358;SDS011;30077;52.474;13.326;2022-09-20T22:16:55;6.32;;;5.68;;
44358;SDS011;30077;52.474;13.326;2022-09-20T22:21:58;7.45;;;5.78;;
44358;SDS011;30077;52.474;13.326;2022-09-20T22:26:58;7.38;;;5.18;;
44358;SDS011;30077;52.474;13.326;2022-09-20T22:31:58;7.65;;;5.50;;
44358;SDS011;30077;52.474;13.326;2022-09-20T22:36:59;7.13;;;5.15;;
44358;SDS011;30077;52.474;13.326;2022-09-20T22:41:59;8.48;;;5.00;;
44358;SDS011;30077;52.474;13.326;2022-09-20T22:46:59;5.95;;;4.82;;
44358;SDS011;30077;52.474;13.326;2022-09-20T22:51:59;5.78;;;5.03;;
44358;SDS011;30077;52.474;13.326;2022-09-20T22:57:00;8.15;;;4.47;;
44358;SDS011;30077;52.474;13.326;2022-09-20T23:02:00;7.50;;;4.78;;
44358;SDS011;30077;52.474;13.326;2022-09-20T23:07:00;8.23;;;5.37;;
44358;SDS011;30077;52.474;13.326;2022-09-20T23:12:02;9.90;;;5.20;;
44358;SDS011;30077;52.474;13.326;2022-09-20T23:17:02;10.67;;;7.30;;
44358;SDS011;30077;52.474;13.326;2022-09-20T23:22:03;8.27;;;5.40;;
44358;SDS011;30077;52.474;13.326;2022-09-20T23:27:03;6.25;;;4.65;;
44358;SDS011;30077;52.474;13.326;2022-09-20T23:32:03;8.63;;;4.40;;
44358;SDS011;30077;52.474;13.326;2022-09-20T23:37:03;14.70;;;4.70;;
44358;SDS011;30077;52.474;13.326;2022-09-20T23:42:05;4.60;;;4.20;;
44358;SDS011;30077;52.474;13.326;2022-09-20T23:47:06;6.35;;;4.20;;
44358;SDS011;30077;52.474;13.326;2022-09-20T23:52:06;5.55;;;4.45;;
44358;SDS011;30077;52.474;13.326;2022-09-20T23:57:06;6.80;;;4.55;;
